AirNav   Pilot Getaways
 
airports navaids fix Aviation Fuel airboss pilotshop
 792 users online  

2E3 Cluck Ranch Airport
Gruver, Texas, USA


FAA INFORMATION EFFECTIVE 08 APRIL 2010

Location

FAA Identifier: 2E3
Lat/Long: 36-10-38.0000N / 101-41-39.9000W
36-10.633333N / 101-41.665000W
36.1772222 / -101.6944167
(estimated)
Elevation: 3423 ft. / 1043.3 m (surveyed)
Variation: 11E (1965)
From city: 17 miles SW of GRUVER, TX
Time zone: UTC -5 (UTC -6 during Standard Time)
Zip code: 79040

Airport Operations

Airport use: Open to the public
Activation date: 11/1975
Sectional chart: WICHITA
Control tower: no
ARTCC: ALBUQUERQUE CENTER
FSS: FORT WORTH FLIGHT SERVICE STATION [817-541-3474]
NOTAMs facility: FTW (NOTAM-D service available)
Attendance: UNATNDD
Segmented circle: no
Lights: DUSK-DAWN
Beacon: white-green (lighted land airport)
ROTG BCN OTS INDEFLY.

Airport Communications

CTAF: 122.9
  • APCH/DEP SERVICE PROVIDED BY ALBUQUERQUE ARTCC ON FREQS 127.85/285.475 (AMARILLO NR 1 RCAG).

Nearby radio navigation aids

VOR radial/distance  VOR name  Freq  Var
BGDr315/26.9BORGER VORTAC108.6011E

 
NDB name  Hdg/Dist  Freq  Var  ID
GUYMON187/33.027509EGUY --. ..- -.--

Airport Services

Runway Information

Runway 1/19

Dimensions: 3605 x 35 ft. / 1099 x 11 m
Surface: asphalt, in fair condition
LOOSE GRAVEL ON SURFACE.
Weight bearing capacity: 
Single wheel: 12.5
RUNWAY 1  RUNWAY 19
Latitude: 36-10.361333N36-10.914467N
Longitude: 101-41.799017W101-41.531750W
Elevation: 3423.1 ft.3417.1 ft.
Traffic pattern: leftleft
Runway heading: 010 magnetic, 021 true190 magnetic, 201 true
Visual slope indicator: tri-color VASI on left (5.00 degrees glide path)
TRIL OTS INDEFLY.
Touchdown point: yes, no lightsyes, no lights

Airport Ownership and Management from official FAA records

Ownership: Privately-owned
Owner: MONTE CLUCK
100 DEAN CLUCK AVE
GRUVER, TX 79040
Phone 806-733-5021
Manager: MONTE CLUCK
100 DEAN CLUCK AVE.
GRUVER, TX 79040
Phone 806-733-5021

Additional Remarks

A58-01 4 FT FENCE 73 FT FM RY END, 0B, 18:1 SLOPE.
A58-19 ROAD 33 FT FM RY END, 125 FT RIGHT, 2.1 SLOPE.

Instrument Procedures

NOTE: All procedures below are presented as PDF files. If you need a reader for these files, you should download the free Adobe Reader.

NOT FOR NAVIGATION. Please procure official charts for flight.
FAA instrument procedures published for use between 8 April 2010 at 0901Z and 6 May 2010 at 0900Z.

 
IAPs - Instrument Approach Procedures
VOR/DME OR GPS-A   download (172KB)

Other nearby airports with instrument procedures:

E19 - Gruver Municipal Airport (13 nm E)
H70 - Stratford Field Airport (20 nm NW)
E42 - Spearman Municipal Airport (24 nm E)
KDUX - Moore County Airport (25 nm SW)
KGUY - Guymon Municipal Airport (32 nm N)
 
Loc | Ops | Rwys | IFR | FBO | Links
Com | Nav | Svcs | Stats | Notes

ATP Flight Schools promo
 
Area around 2E3 (Cluck Ranch Airport)
 
Road maps at: MapQuest MapPoint Yahoo! Maps Google Rand McNally
Satellite photo at: TerraServer Virtual Earth

 
Aerial photo
No photo
 
Sectional chart

 
Airport distance calculator
Flying to Cluck Ranch Airport? Find the distance to fly.

From to 2E3

Sunrise and sunset
Times for 19-Apr-2010
 Local
(UTC-5)
 Zulu
(UTC)
Morning civil twilight06:4211:42
Sunrise07:0912:09
Sunset20:2301:23
Evening civil twilight20:4901:49

Current date and time
Zulu (UTC)  19-Apr-2010 12:05:58
Local (UTC-5)  19-Apr-2010 07:05:58
 
METAR
KDUX 
25nm SW 
191147Z AUTO 13008KT 5SM BR BKN005 OVC010 09/08 A3009 RMK AO2 T00900083
KGUY 
32nm N 
191153Z AUTO 14007KT 10SM OVC008 09/08 A3009 RMK AO2 CIG 005V010 SLP173 T00940083 10094 20089 55003
KBGD 
32nm SE 
191151Z AUTO 14007KT 7SM BKN007 OVC014 09/08 A3011 RMK AO2 SLP182 T00940083 10100 20094 55001
KBPC 
37nm SE 
191153Z AUTO 15006KT 10SM OVC016 09/08 A3011 RMK AO2
KDHT 
43nm W 
191153Z AUTO 17011KT 5SM BR BKN006 OVC010 09/08 A3010 RMK AO2 CIG 004V008 SLP166 T00890083 10094 20089 53003 TSNO
KPYX 
48nm E 
191149Z AUTO 13006KT 10SM SCT004 OVC017 09/08 A3011 RMK AO2 T00880080
TAF
KGUY 
32nm N 
191127Z 1912/2012 15007KT P6SM BKN012 TEMPO 1912/1916 6SM BR BKN006 FM191700 16011KT P6SM SCT020 FM192200 16013KT P6SM SCT030CB FM200700 17008KT P6SM BKN010
NOTAMs
Click for the latest NOTAMs
NOTAMs are issued by the DoD/FAA and will open in a separate window not controlled by AirNav.

 

 
 

Would you like to see your business listed on this page?

 If your business provides an interesting product or service to pilots, flight crews, aircraft, or users of the Cluck Ranch Airport, you should consider listing it here.  To start the listing process, click on the button below
 
Add a business
 

Other Pages about Cluck Ranch Airport

Update a link
 
Copyright © AirNav, LLC. All rights reserved. Privacy Policy  Contact